createdAt,value
2023-04-29T05:54:05.529Z,2.97
2023-04-29T05:56:53.601Z,3.00
2023-04-29T18:44:56.172Z,5.43
2023-04-29T18:47:23.274Z,5.50
2023-04-29T18:49:49.968Z,5.00
2023-04-29T18:52:16.901Z,6.83
2023-04-29T18:54:43.590Z,5.40
2023-04-29T18:57:10.418Z,5.00
2023-04-29T18:59:38.033Z,5.63
2023-04-29T19:02:06.137Z,5.27
2023-04-29T19:04:34.230Z,5.57
2023-04-29T19:07:01.930Z,6.13
2023-04-29T19:09:32.233Z,6.57
2023-04-29T19:12:00.189Z,6.50
2023-04-29T19:14:26.962Z,4.83
2023-04-29T19:16:54.811Z,6.97
2023-04-29T19:19:21.801Z,5.47
2023-04-29T19:21:48.768Z,5.83
2023-04-29T19:24:15.794Z,6.83
2023-04-29T19:26:42.509Z,5.77
2023-04-29T19:29:09.218Z,6.00
2023-04-29T19:31:36.353Z,6.60
2023-04-29T19:34:03.641Z,7.03
2023-04-29T19:36:30.340Z,6.40
2023-04-29T19:38:57.224Z,7.37
2023-04-29T19:41:24.172Z,7.00
2023-04-29T19:43:51.205Z,9.73
2023-04-29T19:46:17.946Z,7.73
2023-04-29T19:48:44.757Z,7.87
2023-04-29T19:51:11.468Z,7.47
2023-04-29T19:53:38.730Z,8.27
2023-04-29T19:56:05.546Z,8.10
2023-04-29T19:58:33.006Z,10.20
2023-04-29T20:00:59.798Z,11.10
2023-04-29T20:03:27.136Z,8.00
2023-04-29T20:05:54.778Z,7.60
2023-04-29T20:08:21.730Z,9.13
2023-04-29T20:10:48.562Z,8.00
2023-04-29T20:13:15.641Z,8.73
2023-04-29T20:15:42.509Z,8.90
2023-04-29T20:18:09.345Z,8.33
2023-04-29T20:20:36.115Z,7.80
2023-04-29T20:23:02.921Z,8.50
2023-04-29T20:25:29.954Z,8.37
2023-04-29T20:27:59.339Z,8.53
2023-04-29T20:30:27.025Z,9.27
2023-04-29T20:32:53.866Z,8.47
2023-04-29T20:35:20.890Z,7.83
2023-04-29T20:37:47.648Z,8.03
2023-04-29T20:40:14.509Z,8.70
2023-04-29T20:42:41.759Z,8.53
2023-04-29T20:45:08.969Z,8.00
2023-04-29T20:47:35.704Z,8.50
2023-04-29T20:50:04.421Z,7.63
2023-04-29T20:52:31.317Z,7.47
2023-04-29T20:54:58.690Z,7.97
2023-04-29T20:57:25.480Z,8.17
2023-04-29T20:59:53.649Z,8.03
2023-04-29T21:02:21.314Z,7.83
2023-04-29T21:04:48.479Z,8.07
2023-04-29T21:07:15.275Z,9.23
2023-04-29T21:09:41.984Z,9.97
2023-04-29T21:12:08.723Z,11.23
2023-04-29T21:14:36.290Z,11.53
2023-04-29T21:17:03.484Z,7.40
2023-04-29T21:19:30.207Z,6.40
2023-04-29T21:21:56.915Z,7.10
2023-04-29T21:24:24.135Z,7.00
2023-04-29T21:26:50.841Z,6.67
2023-04-29T21:29:17.526Z,7.63
2023-04-29T21:31:44.267Z,7.17
2023-04-29T21:34:11.020Z,6.83
2023-04-29T21:36:37.805Z,6.80
2023-04-29T21:39:06.140Z,6.90
2023-04-29T21:41:39.629Z,6.90
2023-04-29T21:44:07.464Z,7.20
2023-04-29T21:46:35.008Z,6.90
2023-04-29T21:49:02.841Z,7.07
2023-04-29T21:51:29.763Z,6.17
2023-04-29T21:53:56.428Z,7.40
2023-04-29T21:56:24.424Z,6.97
2023-04-29T21:58:51.409Z,7.07
2023-04-29T22:01:39.705Z,7.40
2023-04-29T22:04:07.108Z,7.43
2023-04-29T22:06:34.401Z,7.80
2023-04-29T22:09:01.442Z,6.93
2023-04-29T22:11:28.639Z,8.10
2023-04-29T22:13:55.445Z,7.97
2023-04-29T22:16:23.539Z,7.47
2023-04-29T22:18:50.484Z,8.47
2023-04-29T22:21:17.608Z,9.70
2023-04-29T22:23:44.353Z,9.43
2023-04-29T22:26:11.077Z,8.90
2023-04-29T22:28:37.819Z,9.93
2023-04-29T22:31:04.722Z,8.73
2023-04-29T22:33:31.499Z,9.23
2023-04-29T22:35:58.183Z,9.57
2023-04-29T22:38:24.935Z,9.60
2023-04-29T22:40:54.366Z,9.63
2023-04-29T22:43:21.150Z,8.63
2023-04-29T22:45:54.893Z,7.47
2023-04-29T22:48:22.829Z,7.17
2023-04-29T22:50:59.318Z,6.77
2023-04-29T22:53:26.592Z,6.60
2023-04-29T22:55:55.856Z,6.73
2023-04-29T22:58:25.296Z,5.80
2023-04-29T23:00:54.333Z,8.13
2023-04-29T23:03:21.180Z,5.70
2023-04-29T23:05:48.137Z,6.83
2023-04-29T23:08:14.944Z,6.33
2023-04-29T23:10:41.644Z,5.93
2023-04-29T23:13:08.398Z,5.73
2023-04-29T23:15:35.643Z,7.07
2023-04-29T23:18:02.500Z,6.33
2023-04-29T23:20:29.619Z,5.90
2023-04-29T23:22:56.340Z,6.23
2023-04-29T23:25:23.038Z,6.57
2023-04-29T23:27:49.735Z,6.63
2023-04-29T23:30:16.447Z,6.37
2023-04-29T23:32:43.206Z,6.50
2023-04-29T23:35:11.517Z,6.60
2023-04-29T23:37:38.822Z,6.33
2023-04-29T23:40:07.012Z,6.20
2023-04-29T23:42:34.188Z,6.43
2023-04-29T23:45:01.063Z,6.57
2023-04-29T23:47:27.788Z,6.50
2023-04-29T23:49:54.769Z,6.10
2023-04-29T23:52:21.788Z,5.90
2023-04-29T23:54:48.534Z,6.03
2023-04-29T23:57:15.483Z,5.80
2023-04-29T23:59:42.543Z,6.93
